createdAt,value
2022-12-08T00:00:48.780Z,97.16
2022-12-08T00:01:49.974Z,97.22
2022-12-08T00:02:50.231Z,97.29
2022-12-08T00:03:50.944Z,97.23
2022-12-08T00:04:51.161Z,97.16
2022-12-08T00:05:51.268Z,97.12
2022-12-08T00:06:51.798Z,97.18
2022-12-08T00:07:52.283Z,97.35
2022-12-08T00:08:52.722Z,97.55
2022-12-08T00:09:53.028Z,97.63
2022-12-08T00:10:53.434Z,97.66
2022-12-08T00:12:54.457Z,97.82
2022-12-08T00:13:55.208Z,97.86
2022-12-08T00:14:55.200Z,97.9
2022-12-08T00:16:00.758Z,97.88
2022-12-08T00:16:59.399Z,97.95
2022-12-08T00:17:58.621Z,98.05
2022-12-08T00:18:59.139Z,98.21
2022-12-08T00:19:59.550Z,98.29
2022-12-08T00:21:00.169Z,98.28
2022-12-08T00:22:00.636Z,98.33
2022-12-08T00:23:00.633Z,98.33
2022-12-08T00:24:01.014Z,98.5
2022-12-08T00:25:01.878Z,98.54
2022-12-08T00:26:03.908Z,98.64
2022-12-08T00:27:02.876Z,98.74
2022-12-08T00:28:02.778Z,98.77
2022-12-08T00:29:03.253Z,98.8
2022-12-08T00:30:04.021Z,98.83
2022-12-08T00:31:11.296Z,98.83
2022-12-08T00:32:09.556Z,98.83
2022-12-08T00:33:09.732Z,98.89
2022-12-08T00:34:09.533Z,98.89
2022-12-08T00:35:10.203Z,98.89
2022-12-08T00:36:13.243Z,98.92
2022-12-08T00:37:10.936Z,99.05
2022-12-08T00:38:11.242Z,99.13
2022-12-08T00:39:13.050Z,99.14
2022-12-08T00:40:11.975Z,99.1
2022-12-08T00:41:14.696Z,99.18
2022-12-08T00:42:13.012Z,99.25
2022-12-08T00:43:14.392Z,99.27
2022-12-08T00:44:16.190Z,99.27
2022-12-08T00:45:14.005Z,99.36
2022-12-08T00:46:14.622Z,99.43
2022-12-08T00:47:15.065Z,99.52
2022-12-08T00:48:15.212Z,99.59
2022-12-08T00:49:16.942Z,99.63
2022-12-08T00:50:16.095Z,99.66
2022-12-08T00:51:16.511Z,99.67
2022-12-08T00:52:16.963Z,99.67
2022-12-08T00:53:17.395Z,99.69
2022-12-08T00:54:18.410Z,99.65
2022-12-08T00:55:18.308Z,99.66
2022-12-08T00:56:18.531Z,99.74
2022-12-08T00:57:18.904Z,99.73
2022-12-08T00:58:19.356Z,99.74
2022-12-08T00:59:19.985Z,99.79
2022-12-08T01:00:21.526Z,99.83
2022-12-08T01:01:21.403Z,99.84
2022-12-08T01:02:21.686Z,99.8
2022-12-08T01:03:22.294Z,99.84
2022-12-08T01:04:22.941Z,99.87
2022-12-08T01:05:23.191Z,99.84
2022-12-08T01:06:23.611Z,99.8
2022-12-08T01:07:23.826Z,99.88
2022-12-08T01:08:24.261Z,99.91
2022-12-08T01:09:24.603Z,99.87
2022-12-08T01:10:25.328Z,99.8
2022-12-08T01:11:25.484Z,99.79
2022-12-08T01:12:26.116Z,99.85
2022-12-08T01:13:26.264Z,99.95
2022-12-08T01:14:27.016Z,99.99
2022-12-08T01:15:27.151Z,100
2022-12-08T01:16:33.311Z,100
2022-12-08T01:17:31.019Z,100
2022-12-08T01:18:31.648Z,100
2022-12-08T01:19:31.582Z,100
2022-12-08T01:20:31.999Z,100
2022-12-08T01:21:32.524Z,100
2022-12-08T01:22:34.882Z,100
2022-12-08T01:23:34.276Z,100
2022-12-08T01:24:33.554Z,100
2022-12-08T01:25:34.971Z,100
2022-12-08T01:26:34.285Z,100
2022-12-08T01:27:34.605Z,100
2022-12-08T01:28:35.576Z,100
2022-12-08T01:29:35.736Z,100
2022-12-08T01:30:38.058Z,100
2022-12-08T01:31:36.577Z,100
2022-12-08T01:32:36.695Z,100
2022-12-08T01:33:37.105Z,100
2022-12-08T01:34:37.316Z,100
2022-12-08T01:35:37.627Z,100
2022-12-08T01:36:38.666Z,100
2022-12-08T01:37:38.558Z,100
2022-12-08T01:38:39.080Z,100
2022-12-08T01:39:40.087Z,100
2022-12-08T01:40:40.526Z,100
2022-12-08T01:41:40.744Z,100
2022-12-08T01:42:40.954Z,100
2022-12-08T01:45:46.331Z,100
2022-12-08T01:46:47.240Z,100
2022-12-08T01:47:50.132Z,100
2022-12-08T01:48:47.544Z,100
2022-12-08T01:49:48.878Z,100
2022-12-08T01:50:49.467Z,100
2022-12-08T01:53:07.037Z,100
2022-12-08T01:53:55.006Z,100
2022-12-08T01:55:02.229Z,100
2022-12-08T01:56:06.666Z,100
2022-12-08T01:58:16.991Z,100
2022-12-08T01:59:10.860Z,100
2022-12-08T02:00:14.459Z,100
2022-12-08T02:01:12.512Z,100
2022-12-08T02:02:12.846Z,100
2022-12-08T02:03:18.657Z,100
2022-12-08T02:04:15.868Z,100
2022-12-08T02:05:18.495Z,100
2022-12-08T02:06:19.096Z,100
2022-12-08T02:07:18.582Z,100
2022-12-08T02:08:17.842Z,100
2022-12-08T02:09:18.806Z,100
2022-12-08T02:10:20.648Z,100
2022-12-08T02:11:18.404Z,100
2022-12-08T02:12:18.738Z,100
2022-12-08T02:13:21.706Z,100
2022-12-08T02:14:19.356Z,100
2022-12-08T02:15:20.518Z,100
2022-12-08T02:20:38.028Z,100
2022-12-08T02:37:18.688Z,100
2022-12-08T02:47:48.342Z,100
2022-12-08T02:48:50.395Z,100
2022-12-08T02:49:48.708Z,100
2022-12-08T02:50:48.871Z,100
2022-12-08T02:51:49.390Z,100
2022-12-08T02:52:49.708Z,100
2022-12-08T02:53:50.586Z,100
2022-12-08T03:10:44.504Z,100
2022-12-08T03:11:47.577Z,100
2022-12-08T03:12:48.606Z,100
2022-12-08T03:13:46.158Z,100
2022-12-08T03:14:48.430Z,100
2022-12-08T03:15:50.568Z,100
2022-12-08T03:16:52.170Z,100
2022-12-08T03:17:57.157Z,100
2022-12-08T03:19:04.269Z,100
2022-12-08T03:20:01.913Z,100
2022-12-08T03:21:00.397Z,100
2022-12-08T03:22:01.522Z,100
2022-12-08T03:23:05.369Z,100
2022-12-08T03:24:07.417Z,100
2022-12-08T03:25:06.404Z,100
2022-12-08T03:26:11.424Z,100
2022-12-08T03:27:12.723Z,100
2022-12-08T03:28:10.525Z,100
2022-12-08T03:29:11.037Z,99.96
2022-12-08T03:30:11.604Z,99.88
2022-12-08T03:31:13.844Z,99.82
2022-12-08T03:34:21.326Z,99.78
2022-12-08T03:35:26.960Z,99.77
2022-12-08T03:36:25.631Z,99.78
2022-12-08T03:37:26.966Z,99.8
2022-12-08T03:38:25.120Z,99.81
2022-12-08T03:39:25.346Z,99.83
2022-12-08T03:40:25.963Z,99.91
2022-12-08T03:41:26.174Z,99.9
2022-12-08T03:42:26.332Z,99.8
2022-12-08T03:43:26.643Z,99.79
2022-12-08T03:44:27.002Z,99.76
2022-12-08T03:45:27.630Z,99.72
2022-12-08T03:47:27.946Z,99.6
2022-12-08T03:48:28.571Z,99.57
2022-12-08T03:49:28.647Z,99.51
2022-12-08T03:50:29.096Z,99.52
2022-12-08T03:51:29.384Z,99.46
2022-12-08T03:52:29.481Z,99.38
2022-12-08T03:53:30.008Z,99.29
2022-12-08T03:54:30.242Z,99.28
2022-12-08T03:55:30.663Z,99.24
2022-12-08T03:56:38.460Z,99.18
2022-12-08T03:57:36.003Z,99.22
2022-12-08T03:58:37.650Z,99.18
2022-12-08T03:59:36.630Z,99.13
2022-12-08T04:00:37.160Z,99.1
2022-12-08T04:01:37.612Z,99.06
2022-12-08T04:02:37.531Z,99.1
2022-12-08T04:03:37.855Z,99.1
2022-12-08T04:04:38.307Z,99.13
2022-12-08T04:05:38.582Z,99.18
2022-12-08T04:06:39.031Z,99.25
2022-12-08T04:07:39.364Z,99.27
2022-12-08T04:08:40.077Z,99.31
2022-12-08T04:09:39.873Z,99.35
2022-12-08T04:10:40.179Z,99.36
2022-12-08T04:11:40.610Z,99.43
2022-12-08T04:12:40.871Z,99.55
2022-12-08T04:13:42.439Z,99.54
2022-12-08T04:14:41.500Z,99.57
2022-12-08T04:15:46.299Z,99.64
2022-12-08T04:16:43.817Z,99.62
2022-12-08T04:17:44.024Z,99.68
2022-12-08T04:18:44.849Z,99.69
2022-12-08T04:19:44.651Z,99.73
2022-12-08T04:20:45.778Z,99.76
2022-12-08T04:21:45.373Z,99.72
2022-12-08T04:22:45.589Z,99.81
2022-12-08T04:23:46.776Z,99.87
2022-12-08T04:24:46.430Z,99.89
2022-12-08T04:25:46.637Z,99.99
2022-12-08T04:26:47.054Z,100
2022-12-08T04:27:47.364Z,100
2022-12-08T04:28:48.082Z,100
2022-12-08T04:29:47.986Z,100
2022-12-08T04:30:49.485Z,100
2022-12-08T04:31:48.916Z,100
2022-12-08T04:32:48.930Z,100
2022-12-08T04:33:49.344Z,100
2022-12-08T04:34:49.567Z,100
2022-12-08T04:35:49.970Z,100
2022-12-08T04:36:50.286Z,99.99
2022-12-08T04:37:50.706Z,99.94
2022-12-08T04:38:51.220Z,99.84
2022-12-08T04:39:51.331Z,99.76
2022-12-08T04:40:51.950Z,99.7
2022-12-08T04:41:51.853Z,99.65
2022-12-08T04:42:52.152Z,99.65
2022-12-08T04:43:52.753Z,99.7
2022-12-08T04:44:52.914Z,99.7
2022-12-08T04:45:53.269Z,99.67
2022-12-08T04:46:53.611Z,99.63
2022-12-08T04:47:53.947Z,99.64
2022-12-08T04:48:54.225Z,99.64
2022-12-08T04:49:54.588Z,99.67
2022-12-08T04:50:54.849Z,99.73
2022-12-08T04:51:55.299Z,99.74
2022-12-08T04:52:55.619Z,99.78
2022-12-08T04:53:56.034Z,99.69
2022-12-08T04:54:56.145Z,99.74
2022-12-08T04:55:56.575Z,99.65
2022-12-08T04:56:56.665Z,99.64
2022-12-08T04:57:57.084Z,99.7
2022-12-08T04:58:57.541Z,99.67
2022-12-08T04:59:57.913Z,99.71
2022-12-08T05:00:58.291Z,99.75
2022-12-08T05:01:58.690Z,99.82
2022-12-08T05:02:59.010Z,99.92
2022-12-08T05:03:59.175Z,99.99
2022-12-08T05:05:00.137Z,100
2022-12-08T05:06:00.714Z,100
2022-12-08T05:07:00.313Z,100
2022-12-08T05:08:00.660Z,100
2022-12-08T05:09:00.740Z,100
2022-12-08T05:10:01.280Z,100
2022-12-08T05:11:09.450Z,100
2022-12-08T05:12:01.889Z,100
2022-12-08T05:13:02.232Z,100
2022-12-08T05:14:02.510Z,100
2022-12-08T05:15:03.136Z,100
2022-12-08T05:16:05.641Z,100
2022-12-08T05:17:09.098Z,100
2022-12-08T05:18:07.043Z,100
2022-12-08T05:19:07.980Z,100
2022-12-08T05:20:08.605Z,100
2022-12-08T05:21:08.911Z,100
2022-12-08T05:22:08.402Z,100
2022-12-08T05:23:08.819Z,100
2022-12-08T05:24:09.639Z,100
2022-12-08T05:25:09.917Z,100
2022-12-08T05:26:09.716Z,100
2022-12-08T05:27:10.699Z,100
2022-12-08T05:28:39.701Z,100
2022-12-08T05:29:12.547Z,100
2022-12-08T05:30:13.576Z,100
2022-12-08T05:31:14.950Z,100
2022-12-08T05:32:13.527Z,100
2022-12-08T05:33:14.013Z,100
2022-12-08T05:34:14.320Z,100
2022-12-08T05:35:14.530Z,100
2022-12-08T05:36:15.954Z,100
2022-12-08T05:37:15.558Z,100
2022-12-08T05:38:15.680Z,100
2022-12-08T05:39:15.881Z,100
2022-12-08T05:40:16.401Z,100
2022-12-08T05:41:20.809Z,100
2022-12-08T05:42:23.128Z,100
2022-12-08T05:43:22.051Z,100
2022-12-08T05:44:22.490Z,100
2022-12-08T05:45:22.589Z,100
2022-12-08T05:46:23.063Z,100
2022-12-08T05:47:23.305Z,100
2022-12-08T05:48:23.735Z,100
2022-12-08T05:49:23.917Z,100
2022-12-08T05:50:24.248Z,100
2022-12-08T05:51:24.755Z,100
2022-12-08T05:52:24.886Z,100
2022-12-08T05:53:25.299Z,100
2022-12-08T05:54:25.716Z,100
2022-12-08T05:55:25.977Z,100
2022-12-08T05:56:26.447Z,100
2022-12-08T05:57:26.657Z,100
2022-12-08T05:58:27.065Z,100
2022-12-08T05:59:27.205Z,100
2022-12-08T06:00:27.692Z,100
2022-12-08T06:01:30.906Z,100
2022-12-08T06:02:28.369Z,100
2022-12-08T06:03:28.837Z,100
2022-12-08T06:04:28.844Z,100
2022-12-08T06:05:29.267Z,100
2022-12-08T06:06:30.601Z,100
2022-12-08T06:07:30.308Z,100
2022-12-08T06:08:30.483Z,100
2022-12-08T06:09:30.525Z,100
2022-12-08T06:10:30.945Z,100
2022-12-08T06:11:32.038Z,100
2022-12-08T06:12:31.875Z,100
2022-12-08T06:13:31.991Z,100
2022-12-08T06:14:32.301Z,100
2022-12-08T06:15:35.175Z,100
2022-12-08T06:16:32.869Z,100
2022-12-08T06:17:33.231Z,100
2022-12-08T06:18:33.862Z,100
2022-12-08T06:19:33.879Z,100
2022-12-08T06:20:34.388Z,100
2022-12-08T06:21:34.552Z,100
2022-12-08T06:22:35.213Z,100
2022-12-08T06:23:35.629Z,100
2022-12-08T06:24:35.516Z,100
2022-12-08T06:25:35.949Z,100
2022-12-08T06:26:36.158Z,100
2022-12-08T06:27:36.472Z,100
2022-12-08T06:28:37.720Z,100
2022-12-08T06:29:37.309Z,100
2022-12-08T06:30:38.029Z,100
2022-12-08T06:31:38.012Z,100
2022-12-08T06:32:38.115Z,100
2022-12-08T06:33:38.663Z,100
2022-12-08T06:34:38.875Z,100
2022-12-08T06:35:39.296Z,100
2022-12-08T06:36:39.605Z,100
2022-12-08T06:37:39.790Z,100
2022-12-08T06:38:43.554Z,100
2022-12-08T06:39:41.059Z,100
2022-12-08T06:40:41.475Z,100
2022-12-08T06:41:41.794Z,100
2022-12-08T06:42:44.610Z,100
2022-12-08T06:43:42.928Z,100
2022-12-08T06:44:43.050Z,100
2022-12-08T06:45:43.226Z,100
2022-12-08T06:46:43.473Z,100
2022-12-08T06:47:44.158Z,100
2022-12-08T06:48:44.497Z,100
2022-12-08T06:49:44.510Z,100
2022-12-08T06:50:44.675Z,100
2022-12-08T06:51:45.038Z,100
2022-12-08T06:52:54.234Z,100
2022-12-08T06:53:46.634Z,100
2022-12-08T06:54:46.281Z,100
2022-12-08T06:55:59.451Z,100
2022-12-08T06:56:47.284Z,100
2022-12-08T06:57:47.629Z,99.93
2022-12-08T06:58:52.360Z,99.92
2022-12-08T06:59:50.301Z,99.86
2022-12-08T07:00:50.811Z,99.77
2022-12-08T07:01:51.003Z,99.69
2022-12-08T07:02:51.530Z,99.62
2022-12-08T07:03:51.692Z,99.45
2022-12-08T07:04:52.084Z,99.34
2022-12-08T07:06:01.775Z,99.4
2022-12-08T07:06:56.185Z,99.5
2022-12-08T07:07:56.916Z,99.51
2022-12-08T07:08:56.831Z,99.52
2022-12-08T07:09:57.142Z,99.47
2022-12-08T07:10:57.757Z,99.36
2022-12-08T07:11:57.859Z,99.26
2022-12-08T07:12:58.174Z,99.11
2022-12-08T07:13:58.657Z,98.94
2022-12-08T07:14:58.704Z,98.85
2022-12-08T07:15:59.230Z,98.82
2022-12-08T07:16:59.523Z,98.66
2022-12-08T07:18:00.623Z,98.51
2022-12-08T07:19:00.876Z,98.34
2022-12-08T07:20:00.481Z,98.31
2022-12-08T07:21:14.310Z,98.2
2022-12-08T07:22:01.712Z,97.96
2022-12-08T07:23:02.163Z,97.59
2022-12-08T07:24:02.342Z,97.36
2022-12-08T07:25:03.017Z,97.2
2022-12-08T07:26:05.496Z,97.16
2022-12-08T07:27:03.690Z,97.14
2022-12-08T07:28:08.414Z,97.15
2022-12-08T07:29:05.958Z,97.21
2022-12-08T07:30:07.522Z,97.02
2022-12-08T07:31:07.577Z,96.94
2022-12-08T07:32:08.338Z,96.79
2022-12-08T07:33:07.225Z,96.71
2022-12-08T07:34:07.536Z,96.67
2022-12-08T07:35:09.070Z,96.63
2022-12-08T07:36:08.975Z,96.45
2022-12-08T07:37:08.421Z,96.22
2022-12-08T07:38:10.875Z,96.13
2022-12-08T07:39:09.923Z,95.89
2022-12-08T07:40:10.335Z,95.7
2022-12-08T07:41:18.553Z,95.63
2022-12-08T07:42:10.809Z,95.51
2022-12-08T07:43:11.278Z,95.59
2022-12-08T07:44:11.593Z,95.58
2022-12-08T07:45:11.918Z,95.55
2022-12-08T07:46:17.195Z,95.62
2022-12-08T07:47:14.795Z,95.57
2022-12-08T07:48:15.093Z,95.43
2022-12-08T07:49:15.301Z,95.24
2022-12-08T07:50:15.725Z,95.35
2022-12-08T07:51:17.069Z,95.33
2022-12-08T07:52:16.455Z,95.4
2022-12-08T07:53:16.870Z,95.32
2022-12-08T07:54:17.079Z,95.36
2022-12-08T07:55:17.663Z,95.47
2022-12-08T07:56:18.121Z,95.43
2022-12-08T07:57:18.133Z,95.51
2022-12-08T07:58:18.540Z,95.42
2022-12-08T07:59:19.270Z,95.56
2022-12-08T08:00:20.248Z,95.64
2022-12-08T08:01:28.213Z,95.7
2022-12-08T08:02:24.815Z,95.8
2022-12-08T08:03:23.599Z,95.85
2022-12-08T08:04:24.084Z,95.96
2022-12-08T08:05:24.015Z,96.08
2022-12-08T08:06:28.021Z,95.99
2022-12-08T08:07:25.439Z,96.03
2022-12-08T08:08:26.070Z,96.11
2022-12-08T08:09:26.197Z,96.21
2022-12-08T08:10:26.673Z,96.13
2022-12-08T08:11:27.539Z,96.18
2022-12-08T08:12:32.310Z,96.16
2022-12-08T08:13:31.043Z,96.05
2022-12-08T08:14:30.834Z,96
2022-12-08T08:15:31.105Z,96.04
2022-12-08T08:16:37.972Z,96.03
2022-12-08T08:17:37.720Z,96.18
2022-12-08T08:18:37.461Z,96.32
2022-12-08T08:19:36.596Z,96.26
2022-12-08T08:20:36.911Z,96.18
2022-12-08T08:21:45.480Z,96.03
2022-12-08T08:22:38.359Z,96.06
2022-12-08T08:23:39.434Z,96.2
2022-12-08T08:24:44.470Z,96.28
2022-12-08T08:25:42.131Z,96.36
2022-12-08T08:26:42.914Z,96.29
2022-12-08T08:27:43.206Z,96.19
2022-12-08T08:28:43.730Z,96.17
2022-12-08T08:29:43.489Z,96.2
2022-12-08T08:30:45.228Z,96.33
2022-12-08T08:31:44.347Z,96.32
2022-12-08T08:32:44.671Z,96.19
2022-12-08T08:33:45.097Z,96.12
2022-12-08T08:34:45.302Z,96.08
2022-12-08T08:35:45.677Z,96.05
2022-12-08T08:36:46.032Z,96.29
2022-12-08T08:37:49.112Z,96.38
2022-12-08T08:38:47.571Z,96.43
2022-12-08T08:39:47.176Z,96.53
2022-12-08T08:40:47.696Z,96.56
2022-12-08T08:41:47.597Z,96.6
2022-12-08T08:42:48.119Z,96.69
2022-12-08T08:43:48.453Z,96.73
2022-12-08T08:44:48.694Z,96.75
2022-12-08T08:45:50.492Z,96.76
2022-12-08T08:46:49.468Z,96.75
2022-12-08T08:47:49.696Z,96.9
2022-12-08T08:48:50.214Z,96.96
2022-12-08T08:49:50.523Z,96.95
2022-12-08T08:50:50.934Z,96.99
2022-12-08T08:51:51.259Z,97.02
2022-12-08T08:52:51.356Z,97.1
2022-12-08T08:53:51.675Z,97.14
2022-12-08T08:54:52.086Z,97.25
2022-12-08T08:55:52.415Z,97.27
2022-12-08T08:56:52.708Z,97.37
2022-12-08T08:57:53.343Z,97.3
2022-12-08T08:58:54.202Z,97.62
2022-12-08T08:59:54.179Z,97.99
2022-12-08T09:00:53.949Z,98.27
2022-12-08T09:01:55.191Z,98.45
2022-12-08T09:02:54.697Z,98.56
2022-12-08T09:03:56.243Z,98.62
2022-12-08T09:04:55.325Z,98.84
2022-12-08T09:05:56.754Z,98.84
2022-12-08T09:06:56.063Z,98.88
2022-12-08T09:07:56.427Z,98.93
2022-12-08T09:08:56.891Z,98.88
2022-12-08T09:10:01.628Z,98.79
2022-12-08T09:10:59.776Z,98.79
2022-12-08T09:12:00.087Z,98.79
2022-12-08T09:13:00.499Z,98.83
2022-12-08T09:14:00.714Z,98.81
2022-12-08T09:15:00.924Z,98.73
2022-12-08T09:16:05.802Z,98.61
2022-12-08T09:17:03.495Z,98.64
2022-12-08T09:18:04.134Z,98.55
2022-12-08T09:19:04.161Z,98.47
2022-12-08T09:20:06.536Z,98.39
2022-12-08T09:21:13.453Z,98.34
2022-12-08T09:22:06.009Z,98.2
2022-12-08T09:23:06.211Z,98.19
2022-12-08T09:24:07.127Z,98.33
2022-12-08T09:25:07.444Z,98.45
2022-12-08T09:26:07.857Z,98.58
2022-12-08T09:27:07.450Z,98.61
2022-12-08T09:28:07.869Z,98.61
2022-12-08T09:29:08.190Z,98.66
2022-12-08T09:30:09.416Z,98.74
2022-12-08T09:31:08.844Z,98.85
2022-12-08T09:32:09.127Z,98.91
2022-12-08T09:33:09.589Z,98.93
2022-12-08T09:34:11.397Z,99.05
2022-12-08T09:35:10.050Z,99.17
2022-12-08T09:36:11.297Z,99.22
2022-12-08T09:37:10.903Z,99.24
2022-12-08T09:38:11.294Z,99.19
2022-12-08T09:39:11.385Z,99.06
2022-12-08T09:40:17.582Z,99.13
2022-12-08T09:46:32.257Z,99.34
2022-12-08T09:51:45.702Z,99.26
2022-12-08T09:54:52.591Z,99.1
2022-12-08T10:00:06.942Z,99.13
2022-12-08T10:01:04.807Z,99.13
2022-12-08T10:03:16.575Z,98.74
2022-12-08T10:05:14.349Z,98.35
2022-12-08T10:08:25.460Z,98.35
2022-12-08T10:14:46.877Z,97.5
2022-12-08T10:16:50.109Z,97.25
2022-12-08T10:17:50.685Z,97.4
2022-12-08T10:20:52.875Z,97.17
2022-12-08T10:21:54.504Z,97.05
2022-12-08T10:24:00.870Z,97.19
2022-12-08T10:25:07.433Z,97.07
2022-12-08T10:26:05.485Z,96.98
2022-12-08T10:27:04.269Z,97.06
2022-12-08T10:28:03.550Z,97.03
2022-12-08T10:29:03.564Z,97.16
2022-12-08T10:31:06.948Z,97.17
2022-12-08T10:33:18.534Z,97.23
2022-12-08T10:35:17.024Z,97.15
2022-12-08T10:36:15.146Z,97.05
2022-12-08T10:37:16.933Z,96.96
2022-12-08T10:40:18.913Z,96.91
2022-12-08T10:41:18.159Z,96.96
2022-12-08T10:42:21.052Z,96.98
2022-12-08T10:43:22.671Z,96.88
2022-12-08T10:44:20.259Z,97.03
2022-12-08T10:46:24.299Z,97.13
2022-12-08T10:47:25.386Z,96.95
2022-12-08T10:49:29.397Z,96.88
2022-12-08T10:52:40.035Z,97.25
2022-12-08T10:53:46.423Z,97.3
2022-12-08T10:54:43.055Z,97.18
2022-12-08T10:55:51.559Z,97.23
2022-12-08T10:56:54.432Z,97.54
2022-12-08T10:57:47.464Z,97.8
2022-12-08T10:58:48.092Z,97.82
2022-12-08T10:59:47.540Z,97.62
2022-12-08T11:00:48.351Z,97.84
2022-12-08T11:01:53.263Z,98.02
2022-12-08T11:02:55.171Z,98.16
2022-12-08T11:03:59.391Z,98.14
2022-12-08T11:05:00.006Z,98.05
2022-12-08T11:06:05.445Z,98.08
2022-12-08T11:07:02.788Z,98.15
2022-12-08T11:08:02.968Z,98.44
2022-12-08T11:09:06.179Z,98.6
2022-12-08T11:10:04.776Z,98.82
2022-12-08T11:11:04.038Z,98.91
2022-12-08T11:12:17.769Z,98.94
2022-12-08T11:13:12.141Z,99.06
2022-12-08T11:15:16.463Z,99.17
2022-12-08T11:16:16.544Z,99.5
2022-12-08T11:18:23.542Z,100
2022-12-08T11:19:22.223Z,100
2022-12-08T11:20:23.528Z,100
2022-12-08T11:22:26.251Z,100
2022-12-08T11:23:26.714Z,100
2022-12-08T11:24:26.758Z,100
2022-12-08T11:25:28.307Z,100
2022-12-08T11:26:32.608Z,99.88
2022-12-08T11:27:31.078Z,99.77
2022-12-08T11:28:30.577Z,99.61
2022-12-08T11:29:33.455Z,99.46
2022-12-08T11:30:42.985Z,99.36
2022-12-08T11:31:40.864Z,99.23
2022-12-08T11:32:40.857Z,98.91
2022-12-08T11:33:38.805Z,98.66
2022-12-08T11:34:50.489Z,98.38
2022-12-08T11:35:49.975Z,97.9
2022-12-08T11:36:48.745Z,97.47
2022-12-08T11:37:47.732Z,97.24
2022-12-08T11:38:51.535Z,97.06
2022-12-08T11:39:51.776Z,96.87
2022-12-08T11:41:00.352Z,96.75
2022-12-08T11:41:54.625Z,96.71
2022-12-08T11:45:04.115Z,96.29
2022-12-08T11:46:00.276Z,96.11
2022-12-08T11:47:08.678Z,96.04
2022-12-08T11:57:28.617Z,94.73
2022-12-08T11:59:32.518Z,93.9
2022-12-08T12:00:29.707Z,93.86
2022-12-08T12:01:30.076Z,93.54
2022-12-08T12:02:36.300Z,93.07
2022-12-08T12:19:19.128Z,89.72
2022-12-08T12:22:23.350Z,90.69
2022-12-08T12:25:27.258Z,90.01
2022-12-08T12:29:38.354Z,89
2022-12-08T12:33:43.600Z,88.91
2022-12-08T12:35:45.650Z,88.93
2022-12-08T12:37:46.109Z,89.85
2022-12-08T12:41:00.418Z,89.68
2022-12-08T12:41:58.801Z,89.83
2022-12-08T12:47:12.462Z,90.13
2022-12-08T12:48:23.947Z,90.3
2022-12-08T12:50:13.678Z,89.94
2022-12-08T12:54:22.645Z,89.64
2022-12-08T12:55:21.828Z,89.45
2022-12-08T13:00:30.221Z,89.75
2022-12-08T13:05:51.804Z,89.94
2022-12-08T13:06:50.370Z,90.08
2022-12-08T13:08:55.403Z,89.81
2022-12-08T13:10:01.240Z,90.35
2022-12-08T13:12:02.176Z,90.37
2022-12-08T13:14:04.743Z,91.47
2022-12-08T13:15:06.100Z,90.43
2022-12-08T13:17:11.763Z,90.41
2022-12-08T13:19:15.941Z,90.67
2022-12-08T13:20:22.197Z,90.81
2022-12-08T13:21:19.021Z,91.2
2022-12-08T13:24:33.697Z,91.1
2022-12-08T13:26:28.273Z,91.11
2022-12-08T13:28:31.061Z,91.17
2022-12-08T13:29:31.880Z,90.9
2022-12-08T13:33:42.154Z,91.42
2022-12-08T13:38:48.327Z,92.24
2022-12-08T13:40:50.553Z,93.05
2022-12-08T13:41:59.102Z,92.91
2022-12-08T13:44:56.654Z,92.43
2022-12-08T13:46:52.837Z,92.71
2022-12-08T13:47:32.354Z,92.63
2022-12-08T13:58:29.515Z,92.35
2022-12-08T14:00:29.935Z,92.09
2022-12-08T14:01:30.245Z,92.42
2022-12-08T14:04:54.383Z,92.09
2022-12-08T14:06:45.234Z,91.45
2022-12-08T14:07:43.914Z,91.24
2022-12-08T14:09:06.911Z,92.16
2022-12-08T14:09:47.814Z,92.03
2022-12-08T14:12:57.053Z,91.18
2022-12-08T14:13:54.397Z,90.95
2022-12-08T14:15:57.940Z,91.23
2022-12-08T14:17:59.964Z,92.06
2022-12-08T14:23:17.602Z,92.97
2022-12-08T14:24:14.935Z,93.58
2022-12-08T14:25:16.696Z,93.43
2022-12-08T14:26:15.565Z,93.47
2022-12-08T14:28:20.082Z,93.32
2022-12-08T14:30:30.965Z,93.84
2022-12-08T14:31:29.159Z,93.76
2022-12-08T14:33:31.889Z,93.69
2022-12-08T14:34:35.693Z,93.38
2022-12-08T14:35:35.087Z,93.41
2022-12-08T14:36:33.346Z,93.35
2022-12-08T14:37:36.996Z,93.22
2022-12-08T14:38:34.969Z,93.25
2022-12-08T14:39:35.104Z,93.47
2022-12-08T14:40:39.926Z,94.01
2022-12-08T14:41:37.473Z,94.25
2022-12-08T14:42:46.492Z,94.07
2022-12-08T14:43:39.020Z,93.93
2022-12-08T14:44:39.338Z,94.03
2022-12-08T14:47:47.352Z,93.89
2022-12-08T14:48:46.733Z,93.9
2022-12-08T14:49:47.155Z,94.08
2022-12-08T14:51:51.074Z,94.28
2022-12-08T14:52:52.804Z,94.03
2022-12-08T14:54:56.811Z,93.92
2022-12-08T14:55:56.105Z,93.96
2022-12-08T14:56:57.523Z,93.93
2022-12-08T14:57:56.836Z,94.03
2022-12-08T15:00:09.197Z,94.27
2022-12-08T15:01:07.409Z,94.6
2022-12-08T15:03:13.451Z,94
2022-12-08T15:05:20.257Z,93.99
2022-12-08T15:06:21.362Z,94.09
2022-12-08T15:07:24.083Z,94.1
2022-12-08T15:08:21.825Z,93.94
2022-12-08T15:12:28.773Z,93.61
2022-12-08T15:13:27.082Z,93.78
2022-12-08T15:15:29.818Z,94.14
2022-12-08T15:19:34.523Z,94.3
2022-12-08T15:21:38.052Z,94.68
2022-12-08T15:22:35.492Z,94.5
2022-12-08T15:23:49.126Z,94.33
2022-12-08T15:24:36.526Z,94
2022-12-08T15:25:38.080Z,94.1
2022-12-08T15:26:46.452Z,94.14
2022-12-08T15:27:49.856Z,94.17
2022-12-08T15:28:43.205Z,94.38
2022-12-08T15:29:43.322Z,94.33
2022-12-08T15:30:43.907Z,94.26
2022-12-08T15:31:44.318Z,94.08
2022-12-08T15:32:44.617Z,93.76
2022-12-08T15:33:44.749Z,93.5
2022-12-08T15:34:45.088Z,93.18
2022-12-08T15:35:46.430Z,93.14
2022-12-08T15:36:47.359Z,93.33
2022-12-08T15:37:46.134Z,93.32
2022-12-08T15:38:46.202Z,93.33
2022-12-08T15:39:46.764Z,93.48
2022-12-08T15:40:47.588Z,93.19
2022-12-08T15:41:47.898Z,93.21
2022-12-08T15:42:47.816Z,93.46
2022-12-08T15:43:47.916Z,93.51
2022-12-08T15:44:48.232Z,93.98
2022-12-08T15:45:58.633Z,93.83
2022-12-08T15:46:53.526Z,93.75
2022-12-08T15:47:51.993Z,93.61
2022-12-08T15:48:57.735Z,93.73
2022-12-08T15:49:55.636Z,93.88
2022-12-08T15:50:56.767Z,93.65
2022-12-08T15:52:05.045Z,93.75
2022-12-08T15:52:58.322Z,93.93
2022-12-08T15:53:58.743Z,93.82
2022-12-08T15:54:59.251Z,93.54
2022-12-08T15:56:27.010Z,93.39
2022-12-08T15:58:51.861Z,93.73
2022-12-08T15:59:05.933Z,94.13
2022-12-08T16:00:19.214Z,94.24
2022-12-08T16:01:10.095Z,94.39
2022-12-08T16:02:15.572Z,94.46
2022-12-08T16:05:41.571Z,94.57
2022-12-08T16:07:27.160Z,94.51
2022-12-08T16:08:45.124Z,94.57
2022-12-08T16:10:45.535Z,94.4
2022-12-08T16:12:04.418Z,94.21
2022-12-08T16:13:13.563Z,94.37
2022-12-08T16:13:56.806Z,94.43
2022-12-08T16:16:01.041Z,94.32
2022-12-08T16:16:43.756Z,94.35
2022-12-08T16:17:44.147Z,94.09
2022-12-08T16:18:44.431Z,93.99
2022-12-08T16:19:45.386Z,94.07
2022-12-08T16:21:07.435Z,94.44
2022-12-08T16:22:59.619Z,94.18
2022-12-08T16:23:50.187Z,94.14
2022-12-08T16:24:50.452Z,94.01
2022-12-08T16:26:16.793Z,94.05
2022-12-08T16:28:05.416Z,94.16
2022-12-08T16:29:00.310Z,94.28
2022-12-08T16:30:00.922Z,94.39
2022-12-08T16:31:01.130Z,94.43
2022-12-08T16:32:01.247Z,94.04
2022-12-08T16:33:01.654Z,93.87
2022-12-08T16:34:02.378Z,93.91
2022-12-08T16:35:02.462Z,94.09
2022-12-08T16:36:02.805Z,94.31
2022-12-08T16:37:02.911Z,94.31
2022-12-08T16:38:03.127Z,94.23
2022-12-08T16:39:03.775Z,94.12
2022-12-08T16:40:05.158Z,94.19
2022-12-08T16:41:04.776Z,94.42
2022-12-08T16:42:04.477Z,94.59
2022-12-08T16:43:04.876Z,94.27
2022-12-08T16:44:06.382Z,94.05
2022-12-08T16:45:14.527Z,93.89
2022-12-08T16:46:07.001Z,94.01
2022-12-08T16:47:09.925Z,94.27
2022-12-08T16:48:14.239Z,94.41
2022-12-08T16:49:11.590Z,94.74
2022-12-08T16:50:20.813Z,95.28
2022-12-08T16:51:22.003Z,95.37
2022-12-08T16:52:17.962Z,95.05
2022-12-08T16:53:17.916Z,94.81
2022-12-08T16:54:18.274Z,94.67
2022-12-08T16:55:19.617Z,94.89
2022-12-08T16:56:21.158Z,94.95
2022-12-08T16:57:19.223Z,94.78
2022-12-08T16:58:19.433Z,94.84
2022-12-08T16:59:19.843Z,95.15
2022-12-08T17:00:23.182Z,95.32
2022-12-08T17:01:20.675Z,95.29
2022-12-08T17:02:20.843Z,95.05
2022-12-08T17:03:21.209Z,94.63